sensor_id;sensor_type;location;lat;lon;timestamp;temperature;humidity
9403;DHT22;4741;49.834;10.740;2023-05-02T00:00:54;6.20;99.90
9403;DHT22;4741;49.834;10.740;2023-05-02T00:03:20;6.30;99.90
9403;DHT22;4741;49.834;10.740;2023-05-02T00:05:47;6.10;99.90
9403;DHT22;4741;49.834;10.740;2023-05-02T00:08:14;6.10;99.90
9403;DHT22;4741;49.834;10.740;2023-05-02T00:20:30;6.00;99.90
9403;DHT22;4741;49.834;10.740;2023-05-02T00:25:23;6.10;99.90
9403;DHT22;4741;49.834;10.740;2023-05-02T00:27:50;6.00;99.90
9403;DHT22;4741;49.834;10.740;2023-05-02T00:35:13;5.80;99.90
9403;DHT22;4741;49.834;10.740;2023-05-02T00:37:40;5.60;99.90
9403;DHT22;4741;49.834;10.740;2023-05-02T00:40:07;5.60;99.90
9403;DHT22;4741;49.834;10.740;2023-05-02T00:42:33;5.90;99.90
9403;DHT22;4741;49.834;10.740;2023-05-02T00:45:02;5.60;99.90
9403;DHT22;4741;49.834;10.740;2023-05-02T00:47:30;5.50;99.90
9403;DHT22;4741;49.834;10.740;2023-05-02T00:49:56;5.90;99.90
9403;DHT22;4741;49.834;10.740;2023-05-02T00:52:24;5.80;99.90
9403;DHT22;4741;49.834;10.740;2023-05-02T00:54:51;5.70;99.90
9403;DHT22;4741;49.834;10.740;2023-05-02T00:57:18;5.80;99.90
9403;DHT22;4741;49.834;10.740;2023-05-02T01:09:51;5.60;99.90
9403;DHT22;4741;49.834;10.740;2023-05-02T01:14:49;5.30;99.90
9403;DHT22;4741;49.834;10.740;2023-05-02T01:19:44;5.10;99.90
9403;DHT22;4741;49.834;10.740;2023-05-02T01:22:14;5.10;99.90
9403;DHT22;4741;49.834;10.740;2023-05-02T01:24:45;5.20;99.90
9403;DHT22;4741;49.834;10.740;2023-05-02T01:29:45;5.50;99.90
9403;DHT22;4741;49.834;10.740;2023-05-02T01:32:15;5.50;99.90
9403;DHT22;4741;49.834;10.740;2023-05-02T01:34:42;5.50;99.90
9403;DHT22;4741;49.834;10.740;2023-05-02T01:37:10;5.40;99.90
9403;DHT22;4741;49.834;10.740;2023-05-02T01:39:37;5.50;99.90
9403;DHT22;4741;49.834;10.740;2023-05-02T01:42:05;5.50;99.90
9403;DHT22;4741;49.834;10.740;2023-05-02T01:44:32;5.50;99.90
9403;DHT22;4741;49.834;10.740;2023-05-02T01:46:59;5.40;99.90
9403;DHT22;4741;49.834;10.740;2023-05-02T01:49:28;5.30;99.90
9403;DHT22;4741;49.834;10.740;2023-05-02T01:51:57;5.20;99.90
9403;DHT22;4741;49.834;10.740;2023-05-02T01:54:28;5.00;99.90
9403;DHT22;4741;49.834;10.740;2023-05-02T01:59:23;5.00;99.90
9403;DHT22;4741;49.834;10.740;2023-05-02T02:09:48;4.90;99.90
9403;DHT22;4741;49.834;10.740;2023-05-02T02:12:16;5.00;99.90
9403;DHT22;4741;49.834;10.740;2023-05-02T02:14:49;5.10;99.90
9403;DHT22;4741;49.834;10.740;2023-05-02T02:17:21;5.00;99.90
9403;DHT22;4741;49.834;10.740;2023-05-02T02:19:49;5.10;99.90
9403;DHT22;4741;49.834;10.740;2023-05-02T02:22:18;4.80;99.90
9403;DHT22;4741;49.834;10.740;2023-05-02T02:24:46;4.90;99.90
9403;DHT22;4741;49.834;10.740;2023-05-02T02:27:12;4.70;99.90
9403;DHT22;4741;49.834;10.740;2023-05-02T02:29:39;4.50;99.90
9403;DHT22;4741;49.834;10.740;2023-05-02T02:32:06;4.50;99.90
9403;DHT22;4741;49.834;10.740;2023-05-02T02:34:32;4.70;99.90
9403;DHT22;4741;49.834;10.740;2023-05-02T02:37:00;4.50;99.90
9403;DHT22;4741;49.834;10.740;2023-05-02T02:40:33;4.30;99.90
9403;DHT22;4741;49.834;10.740;2023-05-02T02:47:29;4.70;99.90
9403;DHT22;4741;49.834;10.740;2023-05-02T02:52:29;4.80;99.90
9403;DHT22;4741;49.834;10.740;2023-05-02T02:54:59;5.10;99.90
9403;DHT22;4741;49.834;10.740;2023-05-02T03:00:06;5.00;99.90
9403;DHT22;4741;49.834;10.740;2023-05-02T03:02:34;5.40;99.90
9403;DHT22;4741;49.834;10.740;2023-05-02T03:05:01;5.10;99.90
9403;DHT22;4741;49.834;10.740;2023-05-02T03:07:28;5.20;99.90
9403;DHT22;4741;49.834;10.740;2023-05-02T03:09:55;5.10;99.90
9403;DHT22;4741;49.834;10.740;2023-05-02T03:12:23;5.00;99.90
9403;DHT22;4741;49.834;10.740;2023-05-02T03:14:49;5.20;99.90
9403;DHT22;4741;49.834;10.740;2023-05-02T03:17:16;5.30;99.90
9403;DHT22;4741;49.834;10.740;2023-05-02T03:19:43;5.20;99.90
9403;DHT22;4741;49.834;10.740;2023-05-02T03:22:09;6.60;99.90
9403;DHT22;4741;49.834;10.740;2023-05-02T03:24:36;5.40;99.90
9403;DHT22;4741;49.834;10.740;2023-05-02T03:27:03;5.30;99.90
9403;DHT22;4741;49.834;10.740;2023-05-02T03:29:29;5.40;99.90
9403;DHT22;4741;49.834;10.740;2023-05-02T03:31:56;5.30;99.90
9403;DHT22;4741;49.834;10.740;2023-05-02T03:34:23;5.10;99.90
9403;DHT22;4741;49.834;10.740;2023-05-02T03:36:49;5.10;99.90
9403;DHT22;4741;49.834;10.740;2023-05-02T03:39:16;5.10;99.90
9403;DHT22;4741;49.834;10.740;2023-05-02T03:41:43;5.30;99.90
9403;DHT22;4741;49.834;10.740;2023-05-02T03:44:09;5.30;99.90
9403;DHT22;4741;49.834;10.740;2023-05-02T03:46:36;5.20;99.90
9403;DHT22;4741;49.834;10.740;2023-05-02T03:49:03;5.00;99.90
9403;DHT22;4741;49.834;10.740;2023-05-02T03:51:29;5.00;99.90
9403;DHT22;4741;49.834;10.740;2023-05-02T03:53:57;5.00;99.90
9403;DHT22;4741;49.834;10.740;2023-05-02T03:56:23;4.90;99.90
9403;DHT22;4741;49.834;10.740;2023-05-02T03:58:50;5.00;99.90
9403;DHT22;4741;49.834;10.740;2023-05-02T04:01:17;5.10;99.90
9403;DHT22;4741;49.834;10.740;2023-05-02T04:03:43;5.30;99.90
9403;DHT22;4741;49.834;10.740;2023-05-02T04:06:10;5.20;99.90
9403;DHT22;4741;49.834;10.740;2023-05-02T04:08:38;5.40;99.90
9403;DHT22;4741;49.834;10.740;2023-05-02T04:11:05;5.30;99.90
9403;DHT22;4741;49.834;10.740;2023-05-02T04:13:31;5.30;99.90
9403;DHT22;4741;49.834;10.740;2023-05-02T04:15:58;5.40;99.90
9403;DHT22;4741;49.834;10.740;2023-05-02T04:18:24;5.60;99.90
9403;DHT22;4741;49.834;10.740;2023-05-02T04:20:52;5.60;99.90
9403;DHT22;4741;49.834;10.740;2023-05-02T04:23:18;5.70;99.90
9403;DHT22;4741;49.834;10.740;2023-05-02T04:25:51;5.70;99.90
9403;DHT22;4741;49.834;10.740;2023-05-02T04:28:19;5.80;99.90
9403;DHT22;4741;49.834;10.740;2023-05-02T04:30:47;5.90;99.90
9403;DHT22;4741;49.834;10.740;2023-05-02T04:33:13;5.90;99.90
9403;DHT22;4741;49.834;10.740;2023-05-02T04:35:40;5.80;99.90
9403;DHT22;4741;49.834;10.740;2023-05-02T04:38:07;5.80;99.90
9403;DHT22;4741;49.834;10.740;2023-05-02T04:40:34;5.90;99.90
9403;DHT22;4741;49.834;10.740;2023-05-02T04:43:01;5.90;99.90
9403;DHT22;4741;49.834;10.740;2023-05-02T04:45:28;5.70;99.90
9403;DHT22;4741;49.834;10.740;2023-05-02T04:50:22;6.70;99.90
9403;DHT22;4741;49.834;10.740;2023-05-02T04:52:48;5.90;99.90
9403;DHT22;4741;49.834;10.740;2023-05-02T04:55:15;5.80;99.90
9403;DHT22;4741;49.834;10.740;2023-05-02T04:57:42;5.90;99.90
9403;DHT22;4741;49.834;10.740;2023-05-02T05:00:08;5.70;99.90
9403;DHT22;4741;49.834;10.740;2023-05-02T05:02:35;5.90;99.90
9403;DHT22;4741;49.834;10.740;2023-05-02T05:05:02;5.70;99.90
9403;DHT22;4741;49.834;10.740;2023-05-02T05:07:29;6.00;99.90
9403;DHT22;4741;49.834;10.740;2023-05-02T05:09:56;6.00;99.90
9403;DHT22;4741;49.834;10.740;2023-05-02T05:12:23;5.90;99.90
9403;DHT22;4741;49.834;10.740;2023-05-02T05:14:50;6.40;99.90
9403;DHT22;4741;49.834;10.740;2023-05-02T05:17:16;5.90;99.90
9403;DHT22;4741;49.834;10.740;2023-05-02T05:19:43;5.80;99.90
9403;DHT22;4741;49.834;10.740;2023-05-02T05:22:10;5.80;99.90
9403;DHT22;4741;49.834;10.740;2023-05-02T05:24:36;5.80;99.90
9403;DHT22;4741;49.834;10.740;2023-05-02T05:27:03;6.00;99.90
9403;DHT22;4741;49.834;10.740;2023-05-02T05:29:30;6.00;99.90
9403;DHT22;4741;49.834;10.740;2023-05-02T05:34:25;6.30;99.90
9403;DHT22;4741;49.834;10.740;2023-05-02T05:36:52;6.30;99.90
9403;DHT22;4741;49.834;10.740;2023-05-02T05:46:39;6.60;99.90
9403;DHT22;4741;49.834;10.740;2023-05-02T05:49:06;6.50;99.90
9403;DHT22;4741;49.834;10.740;2023-05-02T05:51:34;6.40;99.90
9403;DHT22;4741;49.834;10.740;2023-05-02T05:54:00;6.50;99.90
9403;DHT22;4741;49.834;10.740;2023-05-02T05:56:27;6.50;99.90
9403;DHT22;4741;49.834;10.740;2023-05-02T05:58:54;6.50;99.90
9403;DHT22;4741;49.834;10.740;2023-05-02T06:01:20;6.60;99.90
9403;DHT22;4741;49.834;10.740;2023-05-02T06:06:14;6.60;99.90
9403;DHT22;4741;49.834;10.740;2023-05-02T06:08:41;6.50;99.90
9403;DHT22;4741;49.834;10.740;2023-05-02T06:11:08;6.60;99.90
9403;DHT22;4741;49.834;10.740;2023-05-02T06:13:36;6.50;99.90
9403;DHT22;4741;49.834;10.740;2023-05-02T06:16:03;6.60;99.90
9403;DHT22;4741;49.834;10.740;2023-05-02T06:18:29;6.80;99.90
9403;DHT22;4741;49.834;10.740;2023-05-02T06:20:56;6.80;99.90
9403;DHT22;4741;49.834;10.740;2023-05-02T06:25:50;7.00;99.90
9403;DHT22;4741;49.834;10.740;2023-05-02T07:07:34;8.40;99.90
9403;DHT22;4741;49.834;10.740;2023-05-02T07:14:55;8.70;99.90
9403;DHT22;4741;49.834;10.740;2023-05-02T07:22:16;8.60;99.90
9403;DHT22;4741;49.834;10.740;2023-05-02T07:44:51;11.30;99.90
9403;DHT22;4741;49.834;10.740;2023-05-02T07:47:17;11.20;99.90
9403;DHT22;4741;49.834;10.740;2023-05-02T09:10:43;17.30;99.90
9403;DHT22;4741;49.834;10.740;2023-05-02T09:15:56;17.80;99.90
9403;DHT22;4741;49.834;10.740;2023-05-02T09:20:51;18.40;99.90
9403;DHT22;4741;49.834;10.740;2023-05-02T09:23:19;18.60;99.90
9403;DHT22;4741;49.834;10.740;2023-05-02T09:25:45;19.40;99.90
9403;DHT22;4741;49.834;10.740;2023-05-02T09:28:12;19.40;99.90
9403;DHT22;4741;49.834;10.740;2023-05-02T09:30:38;18.00;99.90
9403;DHT22;4741;49.834;10.740;2023-05-02T09:33:05;18.00;99.90
9403;DHT22;4741;49.834;10.740;2023-05-02T09:35:32;17.70;99.90
9403;DHT22;4741;49.834;10.740;2023-05-02T09:37:58;17.90;99.90
9403;DHT22;4741;49.834;10.740;2023-05-02T09:40:25;17.90;99.90
9403;DHT22;4741;49.834;10.740;2023-05-02T09:45:20;17.20;99.90
9403;DHT22;4741;49.834;10.740;2023-05-02T09:47:48;16.80;99.90
9403;DHT22;4741;49.834;10.740;2023-05-02T09:57:58;18.40;99.90
9403;DHT22;4741;49.834;10.740;2023-05-02T10:00:37;18.80;99.90
9403;DHT22;4741;49.834;10.740;2023-05-02T10:03:05;18.90;99.90
9403;DHT22;4741;49.834;10.740;2023-05-02T10:05:36;19.00;99.90
9403;DHT22;4741;49.834;10.740;2023-05-02T10:08:07;18.80;99.90
9403;DHT22;4741;49.834;10.740;2023-05-02T10:10:36;18.20;99.90
9403;DHT22;4741;49.834;10.740;2023-05-02T10:13:04;18.20;99.90
9403;DHT22;4741;49.834;10.740;2023-05-02T10:15:31;18.40;99.90
9403;DHT22;4741;49.834;10.740;2023-05-02T10:18:00;17.80;99.90
9403;DHT22;4741;49.834;10.740;2023-05-02T10:20:31;17.30;99.90
9403;DHT22;4741;49.834;10.740;2023-05-02T10:23:00;17.00;99.90
9403;DHT22;4741;49.834;10.740;2023-05-02T10:25:30;17.10;99.90
9403;DHT22;4741;49.834;10.740;2023-05-02T10:27:58;17.10;99.90
9403;DHT22;4741;49.834;10.740;2023-05-02T10:30:25;17.00;99.90
9403;DHT22;4741;49.834;10.740;2023-05-02T10:32:52;16.50;99.90
9403;DHT22;4741;49.834;10.740;2023-05-02T10:35:19;16.20;99.90
9403;DHT22;4741;49.834;10.740;2023-05-02T10:37:47;16.40;99.90
9403;DHT22;4741;49.834;10.740;2023-05-02T10:40:15;15.90;99.90
9403;DHT22;4741;49.834;10.740;2023-05-02T10:42:42;16.60;99.90
9403;DHT22;4741;49.834;10.740;2023-05-02T10:45:30;17.90;99.90
9403;DHT22;4741;49.834;10.740;2023-05-02T10:48:13;18.80;99.90
9403;DHT22;4741;49.834;10.740;2023-05-02T10:58:21;21.00;99.90
9403;DHT22;4741;49.834;10.740;2023-05-02T11:00:48;20.80;99.90
9403;DHT22;4741;49.834;10.740;2023-05-02T11:03:14;20.70;99.90
9403;DHT22;4741;49.834;10.740;2023-05-02T11:06:04;20.20;99.90
9403;DHT22;4741;49.834;10.740;2023-05-02T11:08:32;18.70;99.90
9403;DHT22;4741;49.834;10.740;2023-05-02T11:11:34;18.10;99.90
9403;DHT22;4741;49.834;10.740;2023-05-02T11:13:49;17.50;99.90
9403;DHT22;4741;49.834;10.740;2023-05-02T11:16:16;17.10;99.90
9403;DHT22;4741;49.834;10.740;2023-05-02T11:21:26;16.10;99.90
9403;DHT22;4741;49.834;10.740;2023-05-02T11:26:21;15.00;99.90
9403;DHT22;4741;49.834;10.740;2023-05-02T11:28:48;14.20;99.90
9403;DHT22;4741;49.834;10.740;2023-05-02T11:34:02;13.60;99.90
9403;DHT22;4741;49.834;10.740;2023-05-02T12:16:58;13.00;99.90
9403;DHT22;4741;49.834;10.740;2023-05-02T12:19:26;13.10;99.90
9403;DHT22;4741;49.834;10.740;2023-05-02T12:21:54;13.40;99.90
9403;DHT22;4741;49.834;10.740;2023-05-02T12:24:23;15.00;99.90
9403;DHT22;4741;49.834;10.740;2023-05-02T12:26:53;12.40;99.90
9403;DHT22;4741;49.834;10.740;2023-05-02T12:29:37;12.00;99.90
9403;DHT22;4741;49.834;10.740;2023-05-02T12:32:04;12.60;99.90
9403;DHT22;4741;49.834;10.740;2023-05-02T12:34:31;12.20;99.90
9403;DHT22;4741;49.834;10.740;2023-05-02T12:36:58;11.60;99.90
9403;DHT22;4741;49.834;10.740;2023-05-02T12:39:37;13.80;99.90
9403;DHT22;4741;49.834;10.740;2023-05-02T12:42:09;13.20;99.90
9403;DHT22;4741;49.834;10.740;2023-05-02T12:44:40;13.50;99.90
9403;DHT22;4741;49.834;10.740;2023-05-02T12:47:08;14.90;99.90
9403;DHT22;4741;49.834;10.740;2023-05-02T12:49:54;16.40;99.90
9403;DHT22;4741;49.834;10.740;2023-05-02T13:00:34;15.10;99.90
9403;DHT22;4741;49.834;10.740;2023-05-02T13:05:32;14.60;99.90
9403;DHT22;4741;49.834;10.740;2023-05-02T13:10:26;16.00;99.90
9403;DHT22;4741;49.834;10.740;2023-05-02T13:12:53;17.50;99.90
9403;DHT22;4741;49.834;10.740;2023-05-02T13:15:20;18.60;99.90
9403;DHT22;4741;49.834;10.740;2023-05-02T13:17:49;18.90;99.90
9403;DHT22;4741;49.834;10.740;2023-05-02T13:20:16;19.30;99.90
9403;DHT22;4741;49.834;10.740;2023-05-02T13:22:43;19.60;99.90
9403;DHT22;4741;49.834;10.740;2023-05-02T13:33:03;21.10;99.90
9403;DHT22;4741;49.834;10.740;2023-05-02T14:12:28;21.40;99.90
9403;DHT22;4741;49.834;10.740;2023-05-02T14:14:54;22.10;99.90
9403;DHT22;4741;49.834;10.740;2023-05-02T14:19:50;20.30;99.90
9403;DHT22;4741;49.834;10.740;2023-05-02T14:22:17;19.50;99.90
9403;DHT22;4741;49.834;10.740;2023-05-02T14:24:43;19.30;99.90
9403;DHT22;4741;49.834;10.740;2023-05-02T14:27:10;19.20;99.90
9403;DHT22;4741;49.834;10.740;2023-05-02T14:29:39;20.50;99.90
9403;DHT22;4741;49.834;10.740;2023-05-02T14:34:33;20.80;99.90
9403;DHT22;4741;49.834;10.740;2023-05-02T14:36:59;22.10;99.90
9403;DHT22;4741;49.834;10.740;2023-05-02T14:39:26;22.60;99.90
9403;DHT22;4741;49.834;10.740;2023-05-02T14:44:20;23.10;99.90
9403;DHT22;4741;49.834;10.740;2023-05-02T14:46:55;23.90;99.90
9403;DHT22;4741;49.834;10.740;2023-05-02T14:51:51;24.60;99.90
9403;DHT22;4741;49.834;10.740;2023-05-02T14:54:17;24.90;99.90
9403;DHT22;4741;49.834;10.740;2023-05-02T14:56:45;21.80;99.90
9403;DHT22;4741;49.834;10.740;2023-05-02T14:59:13;20.40;99.90
9403;DHT22;4741;49.834;10.740;2023-05-02T15:01:40;19.80;99.90
9403;DHT22;4741;49.834;10.740;2023-05-02T15:04:06;19.70;99.90
9403;DHT22;4741;49.834;10.740;2023-05-02T15:06:34;20.40;99.90
9403;DHT22;4741;49.834;10.740;2023-05-02T15:09:01;21.30;99.90
9403;DHT22;4741;49.834;10.740;2023-05-02T15:11:28;22.20;99.90
9403;DHT22;4741;49.834;10.740;2023-05-02T15:13:55;22.80;99.90
9403;DHT22;4741;49.834;10.740;2023-05-02T15:16:24;23.10;99.90
9403;DHT22;4741;49.834;10.740;2023-05-02T15:18:52;22.50;99.90
9403;DHT22;4741;49.834;10.740;2023-05-02T15:21:19;22.90;99.90
9403;DHT22;4741;49.834;10.740;2023-05-02T15:23:46;23.40;99.90
9403;DHT22;4741;49.834;10.740;2023-05-02T15:26:12;23.90;99.90
9403;DHT22;4741;49.834;10.740;2023-05-02T15:28:39;24.60;99.90
9403;DHT22;4741;49.834;10.740;2023-05-02T15:31:06;23.60;99.90
9403;DHT22;4741;49.834;10.740;2023-05-02T15:33:32;25.10;99.90
9403;DHT22;4741;49.834;10.740;2023-05-02T15:35:59;22.20;99.90
9403;DHT22;4741;49.834;10.740;2023-05-02T15:38:26;24.80;99.90
9403;DHT22;4741;49.834;10.740;2023-05-02T15:40:56;24.20;99.90
9403;DHT22;4741;49.834;10.740;2023-05-02T15:43:23;23.80;99.90
9403;DHT22;4741;49.834;10.740;2023-05-02T15:45:53;22.50;99.90
9403;DHT22;4741;49.834;10.740;2023-05-02T15:53:15;19.00;99.90
9403;DHT22;4741;49.834;10.740;2023-05-02T15:55:42;18.70;99.90
9403;DHT22;4741;49.834;10.740;2023-05-02T15:58:09;18.20;99.90
9403;DHT22;4741;49.834;10.740;2023-05-02T16:00:35;18.00;99.90
9403;DHT22;4741;49.834;10.740;2023-05-02T16:05:29;17.50;99.90
9403;DHT22;4741;49.834;10.740;2023-05-02T16:07:56;17.20;99.90
9403;DHT22;4741;49.834;10.740;2023-05-02T16:10:23;16.90;99.90
9403;DHT22;4741;49.834;10.740;2023-05-02T16:12:49;16.60;99.90
9403;DHT22;4741;49.834;10.740;2023-05-02T16:15:16;16.60;99.90
9403;DHT22;4741;49.834;10.740;2023-05-02T16:17:43;16.50;99.90
9403;DHT22;4741;49.834;10.740;2023-05-02T16:27:35;19.30;99.90
9403;DHT22;4741;49.834;10.740;2023-05-02T16:30:02;18.90;99.90
9403;DHT22;4741;49.834;10.740;2023-05-02T16:32:30;18.50;99.90
9403;DHT22;4741;49.834;10.740;2023-05-02T16:37:24;21.00;99.90
9403;DHT22;4741;49.834;10.740;2023-05-02T16:39:50;20.30;99.90
9403;DHT22;4741;49.834;10.740;2023-05-02T16:42:17;19.20;99.90
9403;DHT22;4741;49.834;10.740;2023-05-02T16:44:44;19.00;99.90
9403;DHT22;4741;49.834;10.740;2023-05-02T16:47:10;18.60;99.90
9403;DHT22;4741;49.834;10.740;2023-05-02T16:49:37;17.60;99.90
9403;DHT22;4741;49.834;10.740;2023-05-02T16:52:04;17.60;99.90
9403;DHT22;4741;49.834;10.740;2023-05-02T16:54:31;17.50;99.90
9403;DHT22;4741;49.834;10.740;2023-05-02T16:56:58;17.80;99.90
9403;DHT22;4741;49.834;10.740;2023-05-02T16:59:27;17.90;99.90
9403;DHT22;4741;49.834;10.740;2023-05-02T17:01:54;16.70;99.90
9403;DHT22;4741;49.834;10.740;2023-05-02T17:04:22;16.40;99.90
9403;DHT22;4741;49.834;10.740;2023-05-02T17:06:49;16.60;99.90
9403;DHT22;4741;49.834;10.740;2023-05-02T17:09:15;16.20;99.90
9403;DHT22;4741;49.834;10.740;2023-05-02T17:14:11;15.80;99.90
9403;DHT22;4741;49.834;10.740;2023-05-02T17:16:39;15.40;99.90
9403;DHT22;4741;49.834;10.740;2023-05-02T17:19:06;15.30;99.90
9403;DHT22;4741;49.834;10.740;2023-05-02T17:21:33;15.10;99.90
9403;DHT22;4741;49.834;10.740;2023-05-02T17:24:01;14.90;99.90
9403;DHT22;4741;49.834;10.740;2023-05-02T17:28:55;14.90;99.90
9403;DHT22;4741;49.834;10.740;2023-05-02T17:33:49;14.50;99.90
9403;DHT22;4741;49.834;10.740;2023-05-02T17:36:16;14.30;99.90
9403;DHT22;4741;49.834;10.740;2023-05-02T17:38:42;14.40;99.90
9403;DHT22;4741;49.834;10.740;2023-05-02T17:43:40;14.20;99.90
9403;DHT22;4741;49.834;10.740;2023-05-02T17:46:08;14.10;99.90
9403;DHT22;4741;49.834;10.740;2023-05-02T17:48:35;14.10;99.90
9403;DHT22;4741;49.834;10.740;2023-05-02T17:51:02;13.90;99.90
9403;DHT22;4741;49.834;10.740;2023-05-02T17:55:56;13.80;99.90
9403;DHT22;4741;49.834;10.740;2023-05-02T17:58:23;13.70;99.90
9403;DHT22;4741;49.834;10.740;2023-05-02T18:00:53;13.60;99.90
9403;DHT22;4741;49.834;10.740;2023-05-02T18:03:19;13.40;99.90
9403;DHT22;4741;49.834;10.740;2023-05-02T18:05:46;13.30;99.90
9403;DHT22;4741;49.834;10.740;2023-05-02T18:08:13;13.40;99.90
9403;DHT22;4741;49.834;10.740;2023-05-02T18:10:39;13.30;99.90
9403;DHT22;4741;49.834;10.740;2023-05-02T18:13:07;13.20;99.90
9403;DHT22;4741;49.834;10.740;2023-05-02T18:15:33;13.00;99.90
9403;DHT22;4741;49.834;10.740;2023-05-02T18:18:00;12.90;99.90
9403;DHT22;4741;49.834;10.740;2023-05-02T18:20:27;12.70;99.90
9403;DHT22;4741;49.834;10.740;2023-05-02T18:22:53;12.80;99.90
9403;DHT22;4741;49.834;10.740;2023-05-02T18:25:22;12.70;99.90
9403;DHT22;4741;49.834;10.740;2023-05-02T18:27:49;12.70;99.90
9403;DHT22;4741;49.834;10.740;2023-05-02T18:30:16;12.70;99.90
9403;DHT22;4741;49.834;10.740;2023-05-02T18:32:43;13.20;99.90
9403;DHT22;4741;49.834;10.740;2023-05-02T18:35:09;12.50;99.90
9403;DHT22;4741;49.834;10.740;2023-05-02T18:37:36;12.40;99.90
9403;DHT22;4741;49.834;10.740;2023-05-02T18:40:03;12.40;99.90
9403;DHT22;4741;49.834;10.740;2023-05-02T18:42:30;12.40;99.90
9403;DHT22;4741;49.834;10.740;2023-05-02T18:44:56;12.40;99.90
9403;DHT22;4741;49.834;10.740;2023-05-02T18:47:23;12.50;99.90
9403;DHT22;4741;49.834;10.740;2023-05-02T18:49:50;12.50;99.90
9403;DHT22;4741;49.834;10.740;2023-05-02T18:52:17;12.50;99.90
9403;DHT22;4741;49.834;10.740;2023-05-02T18:54:43;12.50;99.90
9403;DHT22;4741;49.834;10.740;2023-05-02T18:57:10;12.40;99.90
9403;DHT22;4741;49.834;10.740;2023-05-02T18:59:37;12.50;99.90
9403;DHT22;4741;49.834;10.740;2023-05-02T19:02:04;12.40;99.90
9403;DHT22;4741;49.834;10.740;2023-05-02T19:04:30;12.40;99.90
9403;DHT22;4741;49.834;10.740;2023-05-02T19:06:57;12.50;99.90
9403;DHT22;4741;49.834;10.740;2023-05-02T19:09:23;12.30;99.90
9403;DHT22;4741;49.834;10.740;2023-05-02T19:11:50;13.00;99.90
9403;DHT22;4741;49.834;10.740;2023-05-02T19:14:19;12.50;99.90
9403;DHT22;4741;49.834;10.740;2023-05-02T19:16:46;12.50;99.90
9403;DHT22;4741;49.834;10.740;2023-05-02T19:19:12;12.50;99.90
9403;DHT22;4741;49.834;10.740;2023-05-02T19:21:39;12.40;99.90
9403;DHT22;4741;49.834;10.740;2023-05-02T19:24:06;12.70;99.90
9403;DHT22;4741;49.834;10.740;2023-05-02T19:26:33;12.30;99.90
9403;DHT22;4741;49.834;10.740;2023-05-02T19:29:00;12.20;99.90
9403;DHT22;4741;49.834;10.740;2023-05-02T19:31:26;12.20;99.90
9403;DHT22;4741;49.834;10.740;2023-05-02T19:33:53;12.00;99.90
9403;DHT22;4741;49.834;10.740;2023-05-02T19:36:20;11.80;99.90
9403;DHT22;4741;49.834;10.740;2023-05-02T19:38:48;11.80;99.90
9403;DHT22;4741;49.834;10.740;2023-05-02T19:41:15;11.60;99.90
9403;DHT22;4741;49.834;10.740;2023-05-02T19:43:42;11.60;99.90
9403;DHT22;4741;49.834;10.740;2023-05-02T19:46:09;11.50;99.90
9403;DHT22;4741;49.834;10.740;2023-05-02T19:48:36;11.30;99.90
9403;DHT22;4741;49.834;10.740;2023-05-02T19:51:03;11.30;99.90
9403;DHT22;4741;49.834;10.740;2023-05-02T19:53:31;11.20;99.90
9403;DHT22;4741;49.834;10.740;2023-05-02T19:56:03;10.90;99.90
9403;DHT22;4741;49.834;10.740;2023-05-02T19:58:30;10.80;99.90
9403;DHT22;4741;49.834;10.740;2023-05-02T20:00:56;10.70;99.90
9403;DHT22;4741;49.834;10.740;2023-05-02T20:03:23;10.50;99.90
9403;DHT22;4741;49.834;10.740;2023-05-02T20:05:51;10.70;99.90
9403;DHT22;4741;49.834;10.740;2023-05-02T20:08:17;10.60;99.90
9403;DHT22;4741;49.834;10.740;2023-05-02T20:10:44;10.60;99.90
9403;DHT22;4741;49.834;10.740;2023-05-02T20:13:11;10.40;99.90
9403;DHT22;4741;49.834;10.740;2023-05-02T20:15:37;10.40;99.90
9403;DHT22;4741;49.834;10.740;2023-05-02T20:18:04;10.30;99.90
9403;DHT22;4741;49.834;10.740;2023-05-02T20:20:31;10.30;99.90
9403;DHT22;4741;49.834;10.740;2023-05-02T20:22:57;10.30;99.90
9403;DHT22;4741;49.834;10.740;2023-05-02T20:25:24;10.30;99.90
9403;DHT22;4741;49.834;10.740;2023-05-02T20:27:51;10.10;99.90
9403;DHT22;4741;49.834;10.740;2023-05-02T20:30:18;10.00;99.90
9403;DHT22;4741;49.834;10.740;2023-05-02T20:32:45;10.00;99.90
9403;DHT22;4741;49.834;10.740;2023-05-02T20:35:11;9.90;99.90
9403;DHT22;4741;49.834;10.740;2023-05-02T20:37:38;9.90;99.90
9403;DHT22;4741;49.834;10.740;2023-05-02T20:40:05;9.90;99.90
9403;DHT22;4741;49.834;10.740;2023-05-02T20:42:35;9.90;99.90
9403;DHT22;4741;49.834;10.740;2023-05-02T20:45:03;9.90;99.90
9403;DHT22;4741;49.834;10.740;2023-05-02T20:47:32;9.70;99.90
9403;DHT22;4741;49.834;10.740;2023-05-02T20:49:59;9.70;99.90
9403;DHT22;4741;49.834;10.740;2023-05-02T20:52:27;9.70;99.90
9403;DHT22;4741;49.834;10.740;2023-05-02T20:54:54;9.60;99.90
9403;DHT22;4741;49.834;10.740;2023-05-02T20:57:21;9.50;99.90
9403;DHT22;4741;49.834;10.740;2023-05-02T20:59:48;9.50;99.90
9403;DHT22;4741;49.834;10.740;2023-05-02T21:02:14;9.60;99.90
9403;DHT22;4741;49.834;10.740;2023-05-02T21:04:41;9.70;99.90
9403;DHT22;4741;49.834;10.740;2023-05-02T21:07:08;9.80;99.90
9403;DHT22;4741;49.834;10.740;2023-05-02T21:09:34;9.80;99.90
9403;DHT22;4741;49.834;10.740;2023-05-02T21:12:01;9.80;99.90
9403;DHT22;4741;49.834;10.740;2023-05-02T21:14:27;9.80;99.90
9403;DHT22;4741;49.834;10.740;2023-05-02T21:16:54;9.90;99.90
9403;DHT22;4741;49.834;10.740;2023-05-02T21:19:21;9.80;99.90
9403;DHT22;4741;49.834;10.740;2023-05-02T21:21:47;9.80;99.90
9403;DHT22;4741;49.834;10.740;2023-05-02T21:24:14;9.80;99.90
9403;DHT22;4741;49.834;10.740;2023-05-02T21:26:41;9.80;99.90
9403;DHT22;4741;49.834;10.740;2023-05-02T21:29:08;9.70;99.90
9403;DHT22;4741;49.834;10.740;2023-05-02T21:31:36;9.60;99.90
9403;DHT22;4741;49.834;10.740;2023-05-02T21:34:04;9.50;99.90
9403;DHT22;4741;49.834;10.740;2023-05-02T21:36:31;9.40;99.90
9403;DHT22;4741;49.834;10.740;2023-05-02T21:38:58;9.30;99.90
9403;DHT22;4741;49.834;10.740;2023-05-02T21:41:24;9.20;99.90
9403;DHT22;4741;49.834;10.740;2023-05-02T21:43:51;9.30;99.90
9403;DHT22;4741;49.834;10.740;2023-05-02T21:46:17;9.20;99.90
9403;DHT22;4741;49.834;10.740;2023-05-02T21:51:11;8.90;99.90
9403;DHT22;4741;49.834;10.740;2023-05-02T21:53:39;8.90;99.90
9403;DHT22;4741;49.834;10.740;2023-05-02T21:56:06;8.80;99.90
9403;DHT22;4741;49.834;10.740;2023-05-02T21:58:33;9.50;99.90
9403;DHT22;4741;49.834;10.740;2023-05-02T22:03:27;8.60;99.90
9403;DHT22;4741;49.834;10.740;2023-05-02T22:05:54;8.70;99.90
9403;DHT22;4741;49.834;10.740;2023-05-02T22:08:22;8.70;99.90
9403;DHT22;4741;49.834;10.740;2023-05-02T22:10:49;8.60;99.90
9403;DHT22;4741;49.834;10.740;2023-05-02T22:13:16;8.60;99.90
9403;DHT22;4741;49.834;10.740;2023-05-02T22:15:46;8.50;99.90
9403;DHT22;4741;49.834;10.740;2023-05-02T22:18:13;8.40;99.90
9403;DHT22;4741;49.834;10.740;2023-05-02T22:20:40;8.40;99.90
9403;DHT22;4741;49.834;10.740;2023-05-02T22:23:07;8.20;99.90
9403;DHT22;4741;49.834;10.740;2023-05-02T22:25:34;8.20;99.90
9403;DHT22;4741;49.834;10.740;2023-05-02T22:28:02;8.20;99.90
9403;DHT22;4741;49.834;10.740;2023-05-02T22:30:29;8.20;99.90